Time;durP1;ratioP1;P1;durP2;ratioP2;P2;SDS_P1;SDS_P2;PMS_P1;PMS_P2;Temp;Humidity;BMP_temperature;BMP_pressure;BME280_temperature;BME280_humidity;BME280_pressure;Samples;Min_cycle;Max_cycle;Signal;HPM_P1;HPM_P2
2022/08/03 00:01:06;;;;;;;6.77;3.00;;;18.40;57.20;;;;;;4984173;28;20468;-85
2022/08/03 00:03:36;;;;;;;5.00;2.13;;;18.40;57.40;;;;;;4985378;28;20478;-85
2022/08/03 00:06:09;;;;;;;7.43;2.87;;;18.40;57.00;;;;;;4984496;28;20438;-85
2022/08/03 00:08:41;;;;;;;9.37;2.33;;;18.50;58.40;;;;;;4989611;28;20476;-85
2022/08/03 00:11:13;;;;;;;7.40;2.87;;;18.40;58.10;;;;;;5004838;28;20530;-85
2022/08/03 00:14:08;;;;;;;9.00;3.07;;;18.40;58.30;;;;;;5000178;28;20476;-85
2022/08/03 00:16:40;;;;;;;7.43;2.90;;;18.40;58.30;;;;;;4976232;28;20550;-84
2022/08/03 00:19:35;;;;;;;;;;;;;;;;;;;;;
2022/08/03 00:22:34;;;;;;;8.80;2.90;;;18.30;58.20;;;;;;4985512;28;20454;-85
2022/08/03 00:28:20;;;;;;;5.83;2.97;;;18.40;58.30;;;;;;4996422;28;20518;-85
2022/08/03 00:30:57;;;;;;;6.83;2.93;;;18.40;59.20;;;;;;4985914;28;20444;-85
2022/08/03 00:36:46;;;;;;;7.60;3.83;;;18.30;60.30;;;;;;4984335;28;20456;-85
2022/08/03 00:39:12;;;;;;;8.60;3.40;;;18.20;61.60;;;;;;4992618;28;20463;-85
2022/08/03 00:41:39;;;;;;;6.20;2.63;;;18.10;63.00;;;;;;5005100;28;20453;-84
2022/08/03 00:44:08;;;;;;;6.43;3.53;;;18.10;62.60;;;;;;4996166;28;20507;-85
2022/08/03 00:46:37;;;;;;;8.63;4.43;;;18.20;61.60;;;;;;4984324;28;20453;-85
2022/08/03 00:49:05;;;;;;;10.93;3.20;;;18.20;61.20;;;;;;4984627;28;20471;-85
2022/08/03 00:51:41;;;;;;;7.57;3.07;;;18.20;60.90;;;;;;4984406;28;20482;-85
2022/08/03 00:54:13;;;;;;;5.63;2.50;;;18.20;60.70;;;;;;4992052;28;20497;-85
2022/08/03 00:56:41;;;;;;;7.33;3.37;;;18.20;61.10;;;;;;5004103;28;20515;-84
2022/08/03 00:59:10;;;;;;;8.53;4.20;;;18.10;61.60;;;;;;4996104;28;20456;-85
2022/08/03 01:01:37;;;;;;;8.40;3.77;;;18.10;61.30;;;;;;4983514;28;20473;-85
2022/08/03 01:04:04;;;;;;;8.07;3.10;;;18.00;61.90;;;;;;4990975;28;20484;-85
2022/08/03 01:06:41;;;;;;;5.87;2.77;;;18.00;62.40;;;;;;5004485;28;20450;-85
2022/08/03 01:09:17;;;;;;;9.37;3.30;;;18.10;62.30;;;;;;4996735;28;20487;-85
2022/08/03 01:11:50;;;;;;;5.97;3.33;;;18.10;61.60;;;;;;4983436;28;20447;-85
2022/08/03 01:14:27;;;;;;;8.93;3.50;;;18.00;61.40;;;;;;4991843;28;20923;-85
2022/08/03 01:16:59;;;;;;;10.23;3.40;;;18.10;61.60;;;;;;5003517;28;20451;-85
2022/08/03 01:19:44;;;;;;;12.30;4.23;;;18.10;61.50;;;;;;4993900;28;20475;-85
2022/08/03 01:22:27;;;;;;;12.67;5.23;;;18.20;61.60;;;;;;4983516;28;20464;-85
2022/08/03 01:25:02;;;;;;;7.00;3.40;;;18.30;61.60;;;;;;4984574;28;20463;-85
2022/08/03 01:27:43;;;;;;;8.33;3.60;;;18.30;60.80;;;;;;4987691;28;20480;-85
2022/08/03 01:30:12;;;;;;;9.63;3.70;;;18.30;60.30;;;;;;5003447;28;20538;-85
2022/08/03 01:32:46;;;;;;;7.93;3.20;;;18.10;60.10;;;;;;5000629;28;20531;-84
2022/08/03 01:35:16;;;;;;;7.10;3.30;;;18.10;60.10;;;;;;4983392;28;20462;-85
2022/08/03 01:37:50;;;;;;;16.20;3.67;;;18.00;61.20;;;;;;4993947;28;20459;-85
2022/08/03 01:40:22;;;;;;;8.07;3.87;;;18.00;61.80;;;;;;5002373;28;20450;-86
2022/08/03 01:42:55;;;;;;;10.23;3.70;;;18.00;61.90;;;;;;5000534;28;20520;-85
2022/08/03 01:45:33;;;;;;;8.27;4.30;;;17.80;63.40;;;;;;5002194;28;20455;-85
2022/08/03 01:48:07;;;;;;;10.40;4.20;;;17.80;64.10;;;;;;4990518;28;20989;-85
2022/08/03 01:50:38;;;;;;;11.60;4.30;;;17.60;64.50;;;;;;4982708;28;20483;-85
2022/08/03 01:53:10;;;;;;;7.70;4.13;;;17.50;65.00;;;;;;4993648;28;20474;-85
2022/08/03 01:55:40;;;;;;;12.83;4.60;;;17.50;65.90;;;;;;5003259;28;20453;-85
2022/08/03 01:58:08;;;;;;;10.53;4.87;;;17.50;67.80;;;;;;4992117;28;20461;-85
2022/08/03 02:00:58;;;;;;;13.10;3.87;;;17.50;67.30;;;;;;4983682;28;20461;-85
2022/08/03 02:03:29;;;;;;;8.30;4.63;;;17.50;67.40;;;;;;4998251;28;20470;-85
2022/08/03 02:05:58;;;;;;;10.90;4.90;;;17.60;67.20;;;;;;5003783;28;20494;-84
2022/08/03 02:08:29;;;;;;;15.87;4.60;;;17.70;67.00;;;;;;4989281;28;20523;-85
2022/08/03 02:10:58;;;;;;;11.67;4.10;;;17.80;66.40;;;;;;4984356;28;20544;-84
2022/08/03 02:13:33;;;;;;;9.07;4.17;;;17.70;66.10;;;;;;4998218;28;20478;-85
2022/08/03 02:18:55;;;;;;;8.87;4.87;;;17.60;66.30;;;;;;4982714;28;20479;-85
2022/08/03 02:21:23;;;;;;;10.53;4.73;;;17.60;66.80;;;;;;5007061;28;20472;-85
2022/08/03 02:23:51;;;;;;;8.63;4.37;;;17.50;67.10;;;;;;4995021;28;20477;-84
2022/08/03 02:26:22;;;;;;;11.77;4.43;;;17.50;67.80;;;;;;5006931;28;20488;-85
2022/08/03 02:29:08;;;;;;;9.80;5.20;;;17.50;67.70;;;;;;4988338;28;20525;-85
2022/08/03 02:31:43;;;;;;;13.60;5.27;;;17.40;67.70;;;;;;5004134;28;20484;-85
2022/08/03 02:34:19;;;;;;;10.93;4.20;;;17.40;67.80;;;;;;4986508;28;20462;-85
2022/08/03 02:36:51;;;;;;;8.40;4.83;;;17.20;68.80;;;;;;4987455;28;20541;-85
2022/08/03 02:39:21;;;;;;;10.43;4.73;;;17.30;68.30;;;;;;5000418;28;20455;-84
2022/08/03 02:41:52;;;;;;;11.37;4.80;;;17.20;68.60;;;;;;4986963;28;20541;-85
2022/08/03 02:44:27;;;;;;;14.83;4.63;;;17.20;69.10;;;;;;5004041;28;20478;-85
2022/08/03 02:49:41;;;;;;;9.93;4.43;;;17.30;69.70;;;;;;4985629;28;20990;-85
2022/08/03 02:52:14;;;;;;;11.90;4.73;;;17.10;69.40;;;;;;4989886;28;20462;-85
2022/08/03 02:54:44;;;;;;;10.13;4.60;;;17.20;70.20;;;;;;5006549;28;20551;-85
2022/08/03 02:57:53;;;;;;;8.67;4.60;;;17.10;68.90;;;;;;5005849;28;20442;-84
2022/08/03 03:00:22;;;;;;;9.97;6.67;;;17.00;70.80;;;;;;4993929;28;20537;-85
2022/08/03 03:02:52;;;;;;;13.00;6.40;;;16.90;72.00;;;;;;4994226;28;20481;-85
2022/08/03 03:11:10;;;;;;;10.87;6.60;;;16.80;75.20;;;;;;5001731;28;20540;-85
2022/08/03 03:13:37;;;;;;;13.70;8.57;;;16.80;75.40;;;;;;4992110;28;20477;-84
2022/08/03 03:16:07;;;;;;;11.30;6.93;;;16.90;76.90;;;;;;4986652;28;20472;-84
2022/08/03 03:18:37;;;;;;;13.20;6.37;;;16.80;77.20;;;;;;4998713;28;20453;-85
2022/08/03 03:21:05;;;;;;;9.63;6.70;;;16.90;77.10;;;;;;4989109;28;20454;-85
2022/08/03 03:23:35;;;;;;;11.27;7.20;;;16.90;77.00;;;;;;4993745;28;20473;-85
2022/08/03 03:26:02;;;;;;;10.93;7.23;;;16.70;78.00;;;;;;4988669;28;21035;-85
2022/08/03 03:28:30;;;;;;;8.60;7.80;;;16.80;76.60;;;;;;4984614;28;20492;-85
2022/08/03 03:30:57;;;;;;;15.70;7.90;;;16.90;78.30;;;;;;4994854;28;20476;-81
2022/08/03 03:33:24;;;;;;;8.70;6.87;;;16.80;76.90;;;;;;4982182;28;20473;-81
2022/08/03 03:35:53;;;;;;;8.70;7.80;;;16.80;76.60;;;;;;4995557;28;20839;-82
2022/08/03 03:38:20;;;;;;;11.03;9.13;;;16.70;77.50;;;;;;4984364;28;20461;-82
2022/08/03 03:40:48;;;;;;;11.47;10.43;;;16.60;77.20;;;;;;4986233;28;20456;-81
2022/08/03 03:43:15;;;;;;;13.67;12.67;;;16.70;79.60;;;;;;4986726;28;20501;-81
2022/08/03 03:45:43;;;;;;;14.80;13.77;;;16.60;79.10;;;;;;4978116;28;20824;-81
2022/08/03 03:48:10;;;;;;;17.07;15.47;;;16.50;80.70;;;;;;4982212;28;20461;-81
2022/08/03 03:50:39;;;;;;;12.47;11.37;;;16.50;81.60;;;;;;4994838;28;20962;-81
2022/08/03 03:53:09;;;;;;;12.37;11.23;;;16.40;81.20;;;;;;4989088;28;20536;-82
2022/08/03 03:59:28;;;;;;;15.13;13.93;;;16.40;79.30;;;;;;4992631;28;21170;-84
2022/08/03 04:01:55;;;;;;;14.50;13.10;;;16.40;81.30;;;;;;4979638;28;20466;-84
2022/08/03 04:12:39;;;;;;;34.77;32.60;;;16.30;85.50;;;;;;4999744;28;20475;-81
2022/08/03 04:15:07;;;;;;;29.60;27.80;;;16.30;85.90;;;;;;4998539;28;20456;-83
2022/08/03 04:17:35;;;;;;;26.93;25.10;;;16.40;85.40;;;;;;4988444;28;20857;-82
2022/08/03 04:20:03;;;;;;;31.07;29.20;;;16.30;84.60;;;;;;4993986;28;20519;-82
2022/08/03 04:22:32;;;;;;;38.07;36.03;;;16.30;85.60;;;;;;4994748;28;20487;-82
2022/08/03 04:25:03;;;;;;;39.00;36.90;;;16.50;86.60;;;;;;4977425;28;20464;-83
2022/08/03 04:27:36;;;;;;;36.23;33.83;;;16.50;86.50;;;;;;4977670;28;20537;-83
2022/08/03 04:30:05;;;;;;;29.33;27.63;;;16.60;86.90;;;;;;4979480;28;20484;-83
2022/08/03 04:32:32;;;;;;;18.47;17.20;;;16.60;85.50;;;;;;4978103;28;20497;-83
2022/08/03 04:34:59;;;;;;;13.77;12.47;;;16.60;83.80;;;;;;4991274;28;20464;-83
2022/08/03 04:37:35;;;;;;;15.70;10.50;;;16.70;83.10;;;;;;4994114;28;20476;-83
2022/08/03 04:40:07;;;;;;;12.50;11.50;;;16.80;83.20;;;;;;4998306;28;20458;-83
2022/08/03 04:42:34;;;;;;;16.13;14.97;;;16.70;82.70;;;;;;4994773;28;20478;-83
2022/08/03 04:45:02;;;;;;;15.80;14.60;;;16.80;83.20;;;;;;5003776;28;20454;-82
2022/08/03 04:47:31;;;;;;;15.70;13.63;;;16.90;83.20;;;;;;5005636;28;20461;-83
2022/08/03 04:50:00;;;;;;;14.40;12.87;;;17.10;83.40;;;;;;4988688;28;20467;-83
2022/08/03 04:52:26;;;;;;;13.80;12.70;;;17.00;82.20;;;;;;4998628;28;20470;-83
2022/08/03 04:54:53;;;;;;;14.93;13.47;;;17.10;81.60;;;;;;4989376;28;20450;-83
2022/08/03 04:57:21;;;;;;;14.73;13.37;;;17.10;81.50;;;;;;5005237;28;20457;-84
2022/08/03 04:59:51;;;;;;;13.93;12.83;;;17.20;80.70;;;;;;5000874;28;20450;-82
2022/08/03 05:02:18;;;;;;;13.83;12.50;;;17.20;80.90;;;;;;4987259;28;20501;-83
2022/08/03 05:04:45;;;;;;;14.40;13.13;;;17.30;81.10;;;;;;5002900;28;20454;-83
2022/08/03 05:07:12;;;;;;;13.63;12.37;;;17.40;81.30;;;;;;5001524;28;20447;-85
2022/08/03 05:09:39;;;;;;;12.80;11.50;;;17.50;81.00;;;;;;4987456;28;20489;-85
2022/08/03 05:12:06;;;;;;;11.20;10.13;;;17.60;80.40;;;;;;5000989;28;20459;-85
2022/08/03 05:14:36;;;;;;;19.90;9.40;;;17.60;79.70;;;;;;4992231;28;20463;-84
2022/08/03 05:17:03;;;;;;;9.73;8.73;;;17.70;79.20;;;;;;5000739;28;20455;-84
2022/08/03 05:19:33;;;;;;;14.53;7.77;;;17.80;79.00;;;;;;4986819;28;20473;-84
2022/08/03 05:22:06;;;;;;;10.63;8.63;;;18.00;78.40;;;;;;4994801;28;20872;-83
2022/08/03 05:24:32;;;;;;;9.27;8.30;;;17.90;78.80;;;;;;4977710;28;20487;-84
2022/08/03 05:26:59;;;;;;;10.00;9.00;;;18.10;77.70;;;;;;4990449;28;20457;-84
2022/08/03 05:29:26;;;;;;;11.13;7.23;;;18.20;77.50;;;;;;4982882;28;20482;-83
2022/08/03 05:31:54;;;;;;;8.67;6.83;;;18.50;76.90;;;;;;4981147;28;20953;-85
2022/08/03 05:34:42;;;;;;;7.93;4.70;;;18.60;76.60;;;;;;4997868;28;20497;-85
2022/08/03 05:37:09;;;;;;;7.03;4.40;;;19.00;74.40;;;;;;5000468;28;21101;-83
2022/08/03 05:39:36;;;;;;;9.30;4.13;;;19.40;71.60;;;;;;4983793;28;20524;-84
2022/08/03 05:42:06;;;;;;;7.60;4.13;;;20.20;68.30;;;;;;4994547;28;20455;-82
2022/08/03 05:44:33;;;;;;;9.20;5.20;;;20.70;62.80;;;;;;4979551;28;20451;-84
2022/08/03 05:47:01;;;;;;;8.40;4.20;;;21.20;59.70;;;;;;4981973;28;20451;-84
2022/08/03 05:49:28;;;;;;;8.87;4.00;;;21.70;56.50;;;;;;4999564;28;20471;-85
2022/08/03 05:51:55;;;;;;;7.93;4.13;;;22.30;55.30;;;;;;4990796;28;20459;-85
2022/08/03 05:54:21;;;;;;;8.00;4.13;;;22.70;52.70;;;;;;4992367;28;20518;-84
2022/08/03 05:56:48;;;;;;;10.23;4.00;;;23.00;49.60;;;;;;4988665;28;20457;-84
2022/08/03 05:59:15;;;;;;;8.47;4.10;;;23.20;48.40;;;;;;4994528;28;20950;-85
2022/08/03 06:01:49;;;;;;;8.67;4.03;;;23.30;47.40;;;;;;4996832;28;20454;-87
2022/08/03 06:04:17;;;;;;;8.27;3.63;;;23.60;46.00;;;;;;4994921;28;20527;-85
2022/08/03 06:06:45;;;;;;;8.33;3.80;;;24.00;43.80;;;;;;4996630;28;20817;-85
2022/08/03 06:09:12;;;;;;;7.93;4.00;;;24.10;43.40;;;;;;4994312;28;21012;-86
2022/08/03 06:11:39;;;;;;;7.57;3.00;;;24.60;41.90;;;;;;4980343;28;20459;-85
2022/08/03 06:14:08;;;;;;;11.10;3.67;;;24.70;40.50;;;;;;4987599;28;20473;-85
2022/08/03 06:16:37;;;;;;;10.20;3.97;;;25.00;37.50;;;;;;4997709;28;20922;-85
2022/08/03 06:19:04;;;;;;;6.60;3.20;;;25.10;38.50;;;;;;4992064;28;20803;-85
2022/08/03 06:21:32;;;;;;;10.33;4.30;;;25.10;37.30;;;;;;4989005;28;20477;-85
2022/08/03 06:23:59;;;;;;;7.63;3.63;;;25.40;35.70;;;;;;4995357;28;20493;-86
2022/08/03 06:26:27;;;;;;;7.83;3.50;;;25.40;33.80;;;;;;4982156;28;20451;-85
2022/08/03 06:28:54;;;;;;;6.83;3.20;;;25.70;33.90;;;;;;4995518;28;20457;-82
2022/08/03 06:31:26;;;;;;;7.83;3.17;;;25.60;32.20;;;;;;4987073;28;20428;-84
2022/08/03 06:34:08;;;;;;;5.60;2.70;;;25.80;31.90;;;;;;4989186;28;20457;-86
2022/08/03 06:36:36;;;;;;;7.47;3.40;;;26.10;31.40;;;;;;4979627;28;20428;-81
2022/08/03 06:39:12;;;;;;;8.10;3.70;;;26.10;30.20;;;;;;4980348;28;20450;-81
2022/08/03 06:45:28;;;;;;;6.77;4.17;;;26.50;29.20;;;;;;4997229;28;20444;-81
2022/08/03 06:51:55;;;;;;;8.43;4.00;;;26.90;27.60;;;;;;4915344;29;20497;-80
2022/08/03 06:54:58;;;;;;;9.90;3.50;;;27.30;26.10;;;;;;5064453;23;20615;-81
2022/08/03 06:57:54;;;;;;;7.17;3.60;;;27.40;25.80;;;;;;5025135;28;20964;-82
2022/08/03 07:01:13;;;;;;;10.50;4.00;;;27.60;24.70;;;;;;5016321;28;20997;-81
2022/08/03 07:07:37;;;;;;;7.97;3.07;;;27.90;23.60;;;;;;4980594;28;20427;-82
2022/08/03 07:49:27;;;;;;;13.10;3.13;;;27.20;22.00;;;;;;4840751;29;20541;-87
2022/08/03 07:58:04;;;;;;;18.80;3.70;;;27.60;23.70;;;;;;4955296;29;20521;-86
2022/08/03 08:00:31;;;;;;;11.20;2.90;;;27.70;21.80;;;;;;5036818;28;20484;-85
2022/08/03 08:02:58;;;;;;;7.23;2.80;;;27.70;20.50;;;;;;5037172;28;20472;-86
2022/08/03 08:05:25;;;;;;;8.93;2.40;;;27.60;20.50;;;;;;5037174;28;20444;-84
2022/08/03 08:07:52;;;;;;;11.83;2.27;;;27.80;20.20;;;;;;5036356;28;20484;-84
2022/08/03 08:10:19;;;;;;;7.17;2.53;;;27.90;19.60;;;;;;5036281;28;20456;-84
2022/08/03 08:12:45;;;;;;;13.60;2.60;;;28.30;19.70;;;;;;5036679;28;20479;-85
2022/08/03 08:15:14;;;;;;;6.27;2.20;;;28.70;17.80;;;;;;5037122;28;20452;-85
2022/08/03 08:17:45;;;;;;;9.40;2.30;;;29.10;16.20;;;;;;5038597;28;20456;-85
2022/08/03 08:20:15;;;;;;;5.87;2.20;;;29.50;15.80;;;;;;5037951;28;20995;-85
2022/08/03 08:22:42;;;;;;;12.93;2.60;;;29.80;14.90;;;;;;5036865;28;20505;-85
2022/08/03 08:25:09;;;;;;;9.93;2.87;;;30.50;11.80;;;;;;5036539;28;20463;-85
2022/08/03 08:27:42;;;;;;;13.23;2.30;;;30.70;9.90;;;;;;5037946;28;20454;-85
2022/08/03 08:30:10;;;;;;;5.53;1.90;;;30.90;6.90;;;;;;5037448;28;20463;-85
2022/08/03 08:32:38;;;;;;;5.80;2.27;;;31.30;6.10;;;;;;5037792;28;20456;-85
2022/08/03 08:35:06;;;;;;;9.43;2.40;;;31.80;6.70;;;;;;5036915;28;20547;-85
2022/08/03 08:37:33;;;;;;;14.43;2.37;;;31.90;4.10;;;;;;5037475;28;20535;-85
2022/08/03 08:40:00;;;;;;;7.60;2.07;;;32.10;4.10;;;;;;5037743;28;20482;-85
2022/08/03 08:42:27;;;;;;;8.17;2.43;;;32.20;4.20;;;;;;5037340;28;20476;-85
2022/08/03 08:44:55;;;;;;;11.23;2.03;;;32.40;1.00;;;;;;5036761;28;20479;-85
2022/08/03 08:47:25;;;;;;;8.20;2.30;;;32.60;1.00;;;;;;5037679;28;20539;-85
2022/08/03 08:49:54;;;;;;;8.63;2.13;;;32.80;1.00;;;;;;5037132;28;20460;-85
2022/08/03 08:52:25;;;;;;;5.70;1.87;;;32.90;1.00;;;;;;5037192;28;20431;-85
2022/08/03 08:54:54;;;;;;;5.80;1.83;;;33.20;1.00;;;;;;5036586;28;21163;-85
2022/08/03 08:57:22;;;;;;;8.67;2.13;;;33.00;1.00;;;;;;5036962;28;20518;-85
2022/08/03 08:59:49;;;;;;;6.37;2.03;;;32.60;1.00;;;;;;5037333;28;20839;-85
2022/08/03 09:02:16;;;;;;;7.63;2.27;;;32.60;1.00;;;;;;5037128;28;20789;-85
2022/08/03 09:04:44;;;;;;;6.30;2.10;;;33.20;1.00;;;;;;5036812;28;20458;-85
2022/08/03 09:07:12;;;;;;;7.13;2.03;;;33.70;1.00;;;;;;5036598;28;20548;-85
2022/08/03 09:09:39;;;;;;;5.30;1.73;;;33.20;1.00;;;;;;5034888;28;20995;-85
2022/08/03 09:12:07;;;;;;;9.43;2.30;;;33.10;1.00;;;;;;5036494;28;20480;-85
2022/08/03 09:14:34;;;;;;;8.13;1.80;;;33.00;1.00;;;;;;5036578;28;20850;-84
2022/08/03 09:17:02;;;;;;;10.70;2.00;;;32.90;1.00;;;;;;5037146;28;20482;-85
2022/08/03 09:19:30;;;;;;;5.13;1.63;;;33.50;1.00;;;;;;5037296;28;20522;-85
2022/08/03 09:22:13;;;;;;;8.53;2.20;;;33.60;1.00;;;;;;5036777;28;20460;-85
2022/08/03 09:24:55;;;;;;;5.70;2.23;;;34.00;1.00;;;;;;5039255;28;20466;-84
2022/08/03 09:27:22;;;;;;;5.23;1.70;;;34.60;1.00;;;;;;5040731;28;20514;-85
2022/08/03 09:29:49;;;;;;;7.33;1.93;;;34.50;1.00;;;;;;5040630;28;20422;-85
2022/08/03 09:32:20;;;;;;;5.17;1.57;;;34.60;1.00;;;;;;5040363;28;20431;-85
2022/08/03 09:34:48;;;;;;;11.53;1.77;;;34.40;1.00;;;;;;5040754;28;20544;-85
2022/08/03 09:37:18;;;;;;;5.27;1.60;;;34.40;1.00;;;;;;5040987;28;20626;-85
2022/08/03 09:40:17;;;;;;;;;;;;;;;;;;;;;
2022/08/03 09:46:21;;;;;;;6.73;1.80;;;35.70;1.00;;;;;;5011957;28;20435;-85
2022/08/03 09:48:48;;;;;;;6.10;1.60;;;35.40;1.00;;;;;;5035181;28;20452;-85
2022/08/03 09:51:17;;;;;;;9.77;2.10;;;35.10;1.00;;;;;;5039838;28;20455;-85
2022/08/03 09:53:46;;;;;;;4.10;1.30;;;35.30;1.00;;;;;;5039570;28;20533;-85
2022/08/03 09:56:13;;;;;;;9.43;1.97;;;35.40;1.00;;;;;;5039756;28;20423;-85
2022/08/03 09:58:45;;;;;;;9.43;2.00;;;34.90;1.00;;;;;;5039624;28;20423;-85
2022/08/03 10:01:13;;;;;;;7.87;1.87;;;34.60;1.00;;;;;;5040503;28;20468;-85
2022/08/03 10:03:41;;;;;;;5.03;1.53;;;35.20;1.00;;;;;;5039312;28;20460;-86
2022/08/03 10:06:15;;;;;;;14.70;1.97;;;33.80;1.00;;;;;;5037124;28;20885;-85
2022/08/03 10:08:42;;;;;;;12.30;1.43;;;34.30;1.00;;;;;;5037877;28;20459;-86
2022/08/03 10:11:29;;;;;;;7.00;1.50;;;35.00;1.00;;;;;;5035964;28;20448;-84
2022/08/03 10:13:56;;;;;;;4.63;1.60;;;35.50;1.00;;;;;;5044667;28;20465;-82
2022/08/03 10:16:23;;;;;;;5.20;1.50;;;35.70;1.00;;;;;;5047567;28;20457;-83
2022/08/03 10:18:50;;;;;;;6.77;2.00;;;36.40;1.00;;;;;;5047234;28;20443;-83
2022/08/03 10:21:20;;;;;;;5.27;1.60;;;36.10;1.00;;;;;;5048465;28;20465;-83
2022/08/03 10:23:52;;;;;;;6.97;1.63;;;36.30;1.00;;;;;;5047402;28;20483;-83
2022/08/03 10:26:25;;;;;;;6.30;1.50;;;36.70;1.00;;;;;;5038246;28;20531;-85
2022/08/03 10:28:57;;;;;;;5.32;1.50;;;37.40;1.00;;;;;;5038004;28;20463;-86
2022/08/03 10:32:02;;;;;;;7.03;1.90;;;36.80;1.00;;;;;;5040087;28;20276;-85
2022/08/03 10:34:54;;;;;;;9.70;1.50;;;37.30;1.00;;;;;;5041042;28;20452;-85
2022/08/03 10:40:46;;;;;;;6.90;1.60;;;37.80;1.00;;;;;;5033832;28;20495;-87
2022/08/03 10:43:20;;;;;;;5.80;1.60;;;38.10;1.00;;;;;;5030119;28;20495;-87
2022/08/03 10:45:47;;;;;;;9.20;1.50;;;38.60;1.00;;;;;;5037136;28;20418;-86
2022/08/03 10:48:15;;;;;;;4.30;1.07;;;38.90;1.00;;;;;;5035272;28;20465;-86
2022/08/03 10:50:43;;;;;;;4.67;1.37;;;38.90;1.00;;;;;;5031460;28;20582;-87
2022/08/03 10:53:09;;;;;;;8.50;1.67;;;38.50;1.00;;;;;;5020954;28;20455;-87
2022/08/03 10:58:49;;;;;;;5.03;1.47;;;38.60;1.00;;;;;;5033997;28;20827;-86
2022/08/03 11:01:17;;;;;;;6.07;1.20;;;38.80;1.00;;;;;;5024744;28;20506;-89
2022/08/03 11:04:35;;;;;;;;;;;;;;;;;;;;;
2022/08/03 11:07:22;;;;;;;4.70;1.40;;;38.20;1.00;;;;;;5033725;28;20459;-90
2022/08/03 11:09:57;;;;;;;5.43;1.80;;;38.30;1.00;;;;;;5032064;28;20430;-89
2022/08/03 11:12:25;;;;;;;7.93;2.63;;;38.60;1.00;;;;;;5033570;28;21086;-88
2022/08/03 11:14:54;;;;;;;7.63;2.27;;;38.70;1.00;;;;;;5033395;28;20875;-88
2022/08/03 11:17:21;;;;;;;7.17;1.80;;;39.00;1.00;;;;;;5039425;28;20423;-84
2022/08/03 11:19:49;;;;;;;4.67;1.60;;;37.20;1.00;;;;;;5040201;28;20433;-84
2022/08/03 11:22:17;;;;;;;5.90;1.40;;;37.20;1.00;;;;;;5039059;28;20430;-84
2022/08/03 11:25:00;;;;;;;5.67;1.20;;;37.40;1.00;;;;;;5039665;28;20449;-84
2022/08/03 11:27:29;;;;;;;8.53;1.40;;;37.80;1.00;;;;;;5020514;28;20533;-83
2022/08/03 11:30:00;;;;;;;7.70;1.50;;;38.00;1.00;;;;;;5025045;28;20435;-84
2022/08/03 11:32:51;;;;;;;5.30;1.60;;;38.70;1.00;;;;;;5039265;28;20446;-84
2022/08/03 11:35:20;;;;;;;7.10;1.47;;;38.90;1.00;;;;;;5025522;28;20450;-84
2022/08/03 11:38:07;;;;;;;6.10;1.40;;;39.20;1.00;;;;;;5038741;28;20975;-85
2022/08/03 11:40:35;;;;;;;5.50;1.30;;;38.70;1.00;;;;;;5032210;28;20508;-82
2022/08/03 11:43:07;;;;;;;4.77;1.27;;;39.20;1.00;;;;;;5037819;28;20475;-86
2022/08/03 11:45:35;;;;;;;5.83;1.57;;;39.70;1.00;;;;;;5038783;28;20492;-85
2022/08/03 11:48:14;;;;;;;6.83;1.83;;;39.90;1.00;;;;;;5043044;28;20960;-84
2022/08/03 11:50:43;;;;;;;8.50;1.53;;;39.80;1.00;;;;;;5045547;28;20447;-86
2022/08/03 11:53:15;;;;;;;4.90;1.40;;;39.00;1.00;;;;;;5046834;28;20479;-85
2022/08/03 11:55:45;;;;;;;6.13;1.27;;;39.40;1.00;;;;;;5040828;28;20422;-86
2022/08/03 11:58:16;;;;;;;6.00;1.70;;;40.00;1.00;;;;;;5041999;28;20434;-86
2022/08/03 12:00:44;;;;;;;5.40;1.77;;;39.90;1.00;;;;;;5041325;28;20422;-86
2022/08/03 12:03:14;;;;;;;5.03;1.50;;;39.50;1.00;;;;;;5044136;28;20466;-86
2022/08/03 12:05:44;;;;;;;6.80;1.73;;;38.70;1.00;;;;;;5043557;28;20443;-85
2022/08/03 12:08:13;;;;;;;6.20;1.50;;;38.20;1.00;;;;;;5044563;28;20448;-84
2022/08/03 12:10:45;;;;;;;5.30;1.30;;;39.10;1.00;;;;;;5046037;28;20443;-84
2022/08/03 12:13:12;;;;;;;11.67;3.13;;;38.70;1.00;;;;;;5049107;28;20474;-83
2022/08/03 12:15:39;;;;;;;5.53;1.73;;;39.40;1.00;;;;;;5037243;28;20418;-86
2022/08/03 12:18:15;;;;;;;4.97;1.43;;;39.70;1.00;;;;;;5035203;28;20452;-86
2022/08/03 12:20:42;;;;;;;9.70;1.50;;;39.20;1.00;;;;;;5045838;28;20485;-85
2022/08/03 12:23:09;;;;;;;6.50;1.63;;;40.10;1.00;;;;;;5045026;28;20446;-85
2022/08/03 12:25:37;;;;;;;7.40;1.40;;;39.90;1.00;;;;;;5044902;28;20425;-84
2022/08/03 12:28:10;;;;;;;10.27;1.70;;;39.80;1.00;;;;;;5044463;28;20422;-85
2022/08/03 12:30:38;;;;;;;8.03;2.40;;;40.00;1.00;;;;;;5043547;28;20436;-85
2022/08/03 12:33:19;;;;;;;5.73;1.73;;;40.10;1.00;;;;;;5037383;28;20446;-85
2022/08/03 12:35:47;;;;;;;6.37;1.60;;;39.00;1.00;;;;;;5038458;28;20422;-85
2022/08/03 12:38:20;;;;;;;5.50;1.73;;;39.00;1.00;;;;;;5037885;28;20502;-86
2022/08/03 12:40:59;;;;;;;5.40;1.70;;;40.00;1.00;;;;;;5039278;28;20455;-86
2022/08/03 12:43:26;;;;;;;8.10;1.60;;;41.20;1.00;;;;;;5041077;28;20464;-85
2022/08/03 12:46:07;;;;;;;4.87;1.40;;;41.10;1.00;;;;;;5038998;28;20448;-85
2022/08/03 12:48:36;;;;;;;7.20;1.70;;;41.20;1.00;;;;;;5038281;28;20447;-84
2022/08/03 12:51:10;;;;;;;9.60;1.60;;;40.10;1.00;;;;;;5037255;28;20442;-84
2022/08/03 12:53:37;;;;;;;9.30;1.73;;;39.50;1.00;;;;;;5037718;28;20503;-85
2022/08/03 13:00:17;;;;;;;;;;;;;;;;;;;;;
2022/08/03 13:03:04;;;;;;;6.37;1.60;;;40.50;1.00;;;;;;5035986;28;20480;-86
2022/08/03 13:05:54;;;;;;;11.30;3.00;;;39.80;1.00;;;;;;5036625;28;20452;-86
2022/08/03 13:08:23;;;;;;;9.63;1.87;;;38.80;1.00;;;;;;5038226;28;20426;-85
2022/08/03 13:10:58;;;;;;;7.80;1.47;;;38.30;1.00;;;;;;5045526;28;20454;-85
2022/08/03 13:13:38;;;;;;;6.20;1.80;;;39.20;1.00;;;;;;5045688;28;20466;-85
2022/08/03 13:16:14;;;;;;;5.87;1.57;;;38.90;1.00;;;;;;5025460;28;20434;-85
2022/08/03 13:19:04;;;;;;;9.07;1.60;;;39.70;1.00;;;;;;5028597;28;20488;-85
2022/08/03 13:24:18;;;;;;;6.37;1.23;;;40.00;1.00;;;;;;5029081;28;21016;-86
2022/08/03 13:27:16;;;;;;;6.33;1.80;;;41.10;1.00;;;;;;5032724;28;20430;-85
2022/08/03 13:30:09;;;;;;;8.10;1.40;;;41.90;1.00;;;;;;5032188;28;20432;-85
2022/08/03 13:33:03;;;;;;;;;;;;;;;;;;;;;
2022/08/03 13:35:30;;;;;;;7.20;1.60;;;40.90;1.00;;;;;;5011226;28;20560;-86
2022/08/03 13:37:58;;;;;;;6.33;1.83;;;41.50;1.00;;;;;;5031933;28;20448;-84
2022/08/03 13:40:25;;;;;;;7.03;1.80;;;41.10;1.00;;;;;;5031897;28;20830;-85
2022/08/03 13:42:52;;;;;;;4.20;1.20;;;42.40;1.00;;;;;;5031704;28;20444;-85
2022/08/03 13:45:18;;;;;;;6.10;1.30;;;43.00;1.00;;;;;;5032244;28;20426;-85
2022/08/03 13:47:45;;;;;;;5.00;1.33;;;40.10;1.00;;;;;;5032186;28;20451;-85
2022/08/03 13:50:12;;;;;;;5.80;1.10;;;39.30;1.00;;;;;;5031897;28;20935;-85
2022/08/03 13:52:39;;;;;;;7.40;1.60;;;39.00;1.00;;;;;;5031937;28;20483;-85
2022/08/03 13:55:08;;;;;;;5.10;1.60;;;38.90;1.00;;;;;;5030108;28;20817;-84
2022/08/03 13:57:35;;;;;;;10.83;1.80;;;39.10;1.00;;;;;;5030369;28;20196;-85
2022/08/03 14:00:02;;;;;;;5.53;1.97;;;40.00;1.00;;;;;;5030850;28;20452;-85
2022/08/03 14:02:33;;;;;;;9.90;2.13;;;41.30;1.00;;;;;;5030048;28;20898;-89
2022/08/03 14:05:00;;;;;;;5.40;1.37;;;42.10;1.00;;;;;;5031716;28;20456;-88
2022/08/03 14:07:27;;;;;;;4.80;1.40;;;42.70;1.00;;;;;;5030699;28;20418;-87
2022/08/03 14:09:54;;;;;;;7.00;1.73;;;42.30;1.00;;;;;;5032818;28;20534;-87
2022/08/03 14:12:22;;;;;;;5.50;1.40;;;41.30;1.00;;;;;;5034702;28;20541;-88
2022/08/03 14:14:49;;;;;;;6.07;1.27;;;40.20;1.00;;;;;;5034271;28;20876;-87
2022/08/03 14:17:15;;;;;;;4.60;1.50;;;39.90;1.00;;;;;;5030112;28;20438;-87
2022/08/03 14:20:05;;;;;;;6.20;1.47;;;39.20;1.00;;;;;;5022888;28;20426;-87
2022/08/03 14:22:40;;;;;;;6.63;1.43;;;38.80;1.00;;;;;;5025298;28;20546;-86
2022/08/03 14:25:08;;;;;;;5.00;1.40;;;38.50;1.00;;;;;;5033135;28;20469;-87
2022/08/03 14:27:36;;;;;;;6.53;2.03;;;39.10;1.00;;;;;;5033700;28;20886;-88
2022/08/03 14:30:04;;;;;;;4.43;1.40;;;38.50;1.00;;;;;;5034680;28;20455;-89
2022/08/03 14:32:30;;;;;;;6.17;1.57;;;39.00;1.00;;;;;;5032970;28;20562;-87
2022/08/03 14:34:57;;;;;;;5.67;1.40;;;40.20;1.00;;;;;;5034329;28;20513;-88
2022/08/03 14:38:17;;;;;;;6.23;1.23;;;40.70;1.00;;;;;;5027174;28;20659;-87
2022/08/03 14:40:44;;;;;;;4.93;1.47;;;39.70;1.00;;;;;;4917245;28;20552;-89
2022/08/03 14:43:12;;;;;;;4.50;1.17;;;39.40;1.00;;;;;;5025254;28;20474;-89
2022/08/03 14:45:40;;;;;;;5.23;1.40;;;40.00;1.00;;;;;;5029321;28;20480;-87
2022/08/03 14:48:07;;;;;;;4.30;1.30;;;39.90;1.00;;;;;;5016496;28;20455;-87
2022/08/03 14:50:33;;;;;;;7.50;1.40;;;40.60;1.00;;;;;;5015306;28;20454;-87
2022/08/03 14:53:00;;;;;;;6.60;1.43;;;40.40;1.00;;;;;;5014540;28;20473;-88
2022/08/03 14:55:27;;;;;;;5.50;1.20;;;40.70;1.00;;;;;;5024002;28;20458;-87
2022/08/03 14:57:54;;;;;;;5.20;1.63;;;39.90;1.00;;;;;;5034463;28;20430;-87
2022/08/03 15:01:08;;;;;;;12.33;1.40;;;39.50;1.00;;;;;;5033708;28;20524;-88